createdAt,value
2024-02-29T00:00:47.066Z,102006.08
2024-02-29T00:03:34.871Z,102010.44
2024-02-29T00:06:02.819Z,102009.56
2024-02-29T00:08:30.609Z,102007.98
2024-02-29T00:10:59.293Z,102007.30
2024-02-29T00:13:27.204Z,102002.95
2024-02-29T00:15:56.685Z,101997.17
2024-02-29T00:18:24.562Z,101992.48
2024-02-29T00:20:52.400Z,101991.08
2024-02-29T00:23:20.541Z,101989.88
2024-02-29T00:25:48.425Z,101986.23
2024-02-29T00:28:16.343Z,101987.80
2024-02-29T00:30:44.395Z,101987.11
2024-02-29T00:33:16.108Z,101983.61
2024-02-29T00:35:48.820Z,101979.06
2024-02-29T00:38:18.333Z,101982.55
2024-02-29T00:40:46.237Z,101980.63
2024-02-29T00:43:15.216Z,101971.39
2024-02-29T00:45:43.373Z,101970.52
2024-02-29T00:48:11.804Z,101968.79
2024-02-29T00:50:39.911Z,101974.39
2024-02-29T00:53:09.207Z,101970.91
2024-02-29T00:55:39.341Z,101976.16
2024-02-29T00:58:07.264Z,101972.38
2024-02-29T01:00:35.264Z,101974.66
2024-02-29T01:03:03.601Z,101969.43
2024-02-29T01:05:31.793Z,101969.59
2024-02-29T01:07:59.691Z,101961.23
2024-02-29T01:10:27.628Z,101954.25
2024-02-29T01:12:55.538Z,101952.69
2024-02-29T01:15:23.555Z,101950.45
2024-02-29T01:17:54.600Z,101953.25
2024-02-29T01:20:22.527Z,101956.27
2024-02-29T01:22:50.372Z,101955.09
2024-02-29T01:25:18.267Z,101949.70
2024-02-29T01:27:46.159Z,101947.66
2024-02-29T01:30:14.114Z,101943.52
2024-02-29T01:32:41.953Z,101935.34
2024-02-29T01:35:10.538Z,101931.32
2024-02-29T01:37:38.359Z,101926.96
2024-02-29T01:40:07.959Z,101924.70
2024-02-29T01:42:36.131Z,101921.23
2024-02-29T01:45:04.416Z,101921.77
2024-02-29T01:47:32.314Z,101924.22
2024-02-29T01:50:04.376Z,101921.10
2024-02-29T01:52:33.792Z,101917.12
2024-02-29T01:55:04.068Z,101912.79
2024-02-29T01:57:32.467Z,101908.10
2024-02-29T02:00:01.232Z,101908.29
2024-02-29T02:02:29.375Z,101905.34
2024-02-29T02:04:57.245Z,101905.56
2024-02-29T02:07:25.237Z,101894.54
2024-02-29T02:09:53.144Z,101900.73
2024-02-29T02:12:21.056Z,101895.51
2024-02-29T02:14:48.990Z,101891.57
2024-02-29T02:17:16.922Z,101897.79
2024-02-29T02:19:44.860Z,101896.78
2024-02-29T02:22:12.814Z,101898.91
2024-02-29T02:24:41.709Z,101898.22
2024-02-29T02:27:09.865Z,101897.71
2024-02-29T02:29:37.957Z,101900.85
2024-02-29T02:32:10.440Z,101902.60
2024-02-29T02:34:41.056Z,101903.48
2024-02-29T02:37:09.107Z,101902.77
2024-02-29T02:39:37.794Z,101900.69
2024-02-29T02:42:05.997Z,101888.06
2024-02-29T02:44:33.921Z,101905.73
2024-02-29T02:47:01.844Z,101900.85
2024-02-29T02:49:29.783Z,101899.96
2024-02-29T02:51:57.719Z,101894.59
2024-02-29T02:54:25.627Z,101898.95
2024-02-29T02:56:53.506Z,101901.05
2024-02-29T02:59:21.428Z,101899.30
2024-02-29T03:01:50.482Z,101890.09
2024-02-29T03:04:19.632Z,101894.57
2024-02-29T03:06:47.617Z,101890.05
2024-02-29T03:09:15.593Z,101891.45
2024-02-29T03:11:45.524Z,101885.20
2024-02-29T03:14:15.171Z,101887.96
2024-02-29T03:16:43.108Z,101886.41
2024-02-29T03:19:11.166Z,101898.59
2024-02-29T03:21:39.105Z,101899.47
2024-02-29T03:24:07.107Z,101895.64
2024-02-29T03:26:34.931Z,101895.98
2024-02-29T03:29:02.868Z,101897.58
2024-02-29T03:31:30.697Z,101897.92
2024-02-29T03:33:59.043Z,101894.30
2024-02-29T03:36:28.520Z,101898.11
2024-02-29T03:38:56.455Z,101902.81
2024-02-29T03:41:24.327Z,101890.67
2024-02-29T03:43:52.199Z,101886.47
2024-02-29T03:46:20.098Z,101883.86
2024-02-29T03:48:49.640Z,101884.04
2024-02-29T03:51:20.521Z,101875.55
2024-02-29T03:53:48.390Z,101885.25
2024-02-29T03:56:16.265Z,101875.90
2024-02-29T03:58:44.377Z,101882.08
2024-02-29T04:01:12.391Z,101875.87
2024-02-29T04:03:43.666Z,101879.65
2024-02-29T04:06:11.512Z,101873.73
2024-02-29T04:08:39.424Z,101872.20
2024-02-29T04:11:08.361Z,101869.95
2024-02-29T04:13:37.559Z,101865.09
2024-02-29T04:16:08.266Z,101863.52
2024-02-29T04:18:36.153Z,101862.16
2024-02-29T04:21:04.360Z,101859.77
2024-02-29T04:23:32.194Z,101856.29
2024-02-29T04:26:00.136Z,101852.98
2024-02-29T04:28:27.976Z,101848.97
2024-02-29T04:30:55.970Z,101842.17
2024-02-29T04:33:24.050Z,101839.21
2024-02-29T04:35:51.986Z,101828.23
2024-02-29T04:38:19.810Z,101827.69
2024-02-29T04:40:47.935Z,101823.31
2024-02-29T04:43:17.848Z,101820.71
2024-02-29T04:45:45.975Z,101821.08
2024-02-29T04:48:16.335Z,101827.19
2024-02-29T04:50:47.125Z,101823.04
2024-02-29T04:53:15.604Z,101822.53
2024-02-29T04:55:45.847Z,101827.26
2024-02-29T04:58:13.794Z,101830.92
2024-02-29T05:00:41.847Z,101823.64
2024-02-29T05:03:09.780Z,101818.78
2024-02-29T05:05:37.653Z,101824.71
2024-02-29T05:08:05.762Z,101822.63
2024-02-29T05:10:37.772Z,101811.35
2024-02-29T05:13:05.660Z,101813.57
2024-02-29T05:15:33.663Z,101811.13
2024-02-29T05:18:02.162Z,101806.41
2024-02-29T05:20:30.274Z,101797.70
2024-02-29T05:22:58.162Z,101798.92
2024-02-29T05:25:27.010Z,101802.07
2024-02-29T05:27:55.597Z,101801.89
2024-02-29T05:30:26.394Z,101799.86
2024-02-29T05:32:56.104Z,101810.10
2024-02-29T05:35:24.112Z,101814.33
2024-02-29T05:37:51.997Z,101814.38
2024-02-29T05:40:20.011Z,101818.57
2024-02-29T05:42:48.176Z,101815.28
2024-02-29T05:45:16.150Z,101818.60
2024-02-29T05:47:44.054Z,101817.03
2024-02-29T05:50:12.090Z,101820.69
2024-02-29T05:52:43.141Z,101809.42
2024-02-29T05:55:12.072Z,101814.79
2024-02-29T05:57:40.014Z,101818.78
2024-02-29T06:00:09.184Z,101815.30
2024-02-29T06:02:37.246Z,101812.68
2024-02-29T06:05:07.333Z,101814.06
2024-02-29T06:07:35.469Z,101810.28
2024-02-29T06:10:04.579Z,101817.52
2024-02-29T06:12:32.567Z,101807.22
2024-02-29T06:15:00.501Z,101805.48
2024-02-29T06:17:28.436Z,101808.45
2024-02-29T06:19:56.402Z,101813.01
2024-02-29T06:22:24.458Z,101813.04
2024-02-29T06:24:52.455Z,101816.38
2024-02-29T06:27:22.439Z,101816.59
2024-02-29T06:29:50.552Z,101811.79
2024-02-29T06:32:18.603Z,101813.16
2024-02-29T06:34:46.626Z,101817.70
2024-02-29T06:37:14.533Z,101817.40
2024-02-29T06:39:44.984Z,101815.48
2024-02-29T06:42:17.267Z,101813.90
2024-02-29T06:44:45.156Z,101815.25
2024-02-29T06:47:15.420Z,101818.91
2024-02-29T06:49:43.645Z,101820.98
2024-02-29T06:52:11.485Z,101820.63
2024-02-29T06:54:39.690Z,101817.84
2024-02-29T06:57:10.577Z,101811.79
2024-02-29T06:59:38.482Z,101818.16
2024-02-29T07:02:07.508Z,101813.97
2024-02-29T07:04:35.423Z,101809.21
2024-02-29T07:07:05.589Z,101805.34
2024-02-29T07:09:35.803Z,101798.01
2024-02-29T07:12:03.894Z,101796.04
2024-02-29T07:14:32.683Z,101793.90
2024-02-29T07:17:00.565Z,101796.98
2024-02-29T07:19:28.445Z,101793.69
2024-02-29T07:21:59.410Z,101798.85
2024-02-29T07:24:27.464Z,101797.95
2024-02-29T07:26:55.347Z,101799.31
2024-02-29T07:29:23.717Z,101794.25
2024-02-29T07:31:54.918Z,101792.14
2024-02-29T07:34:26.763Z,101786.69
2024-02-29T07:36:54.609Z,101787.37
2024-02-29T07:39:22.484Z,101789.96
2024-02-29T07:41:50.330Z,101791.31
2024-02-29T07:44:18.257Z,101786.88
2024-02-29T07:46:46.107Z,101786.12
2024-02-29T07:49:14.200Z,101789.02
2024-02-29T07:51:42.236Z,101789.13
2024-02-29T07:54:12.461Z,101791.51
2024-02-29T07:56:42.271Z,101785.09
2024-02-29T07:59:15.244Z,101781.34
2024-02-29T08:01:44.694Z,101779.50
2024-02-29T08:04:13.059Z,101777.14
2024-02-29T08:06:41.312Z,101770.73
2024-02-29T08:09:11.554Z,101767.48
2024-02-29T08:11:39.431Z,101764.47
2024-02-29T08:14:07.342Z,101762.80
2024-02-29T08:16:40.063Z,101761.00
2024-02-29T08:19:08.247Z,101757.85
2024-02-29T08:21:40.177Z,101753.76
2024-02-29T08:24:08.512Z,101751.48
2024-02-29T08:26:36.438Z,101752.27
2024-02-29T08:29:04.403Z,101749.91
2024-02-29T08:31:32.584Z,101749.52
2024-02-29T08:34:00.947Z,101745.66
2024-02-29T08:36:30.702Z,101741.92
2024-02-29T08:38:59.701Z,101746.93
2024-02-29T08:41:27.682Z,101747.74
2024-02-29T08:43:55.620Z,101745.55
2024-02-29T08:46:24.784Z,101743.00
2024-02-29T08:48:52.720Z,101743.05
2024-02-29T08:51:20.635Z,101741.19
2024-02-29T08:53:48.530Z,101739.83
2024-02-29T08:56:17.553Z,101740.30
2024-02-29T08:58:45.928Z,101739.54
2024-02-29T09:01:13.808Z,101738.23
2024-02-29T09:03:41.708Z,101729.20
2024-02-29T09:06:09.664Z,101728.22
2024-02-29T09:08:40.234Z,101718.89
2024-02-29T09:11:10.107Z,101725.75
2024-02-29T09:13:38.491Z,101724.24
2024-02-29T09:16:06.790Z,101724.48
2024-02-29T09:18:34.823Z,101721.71
2024-02-29T09:21:04.010Z,101717.20
2024-02-29T09:23:32.879Z,101716.35
2024-02-29T09:26:00.742Z,101720.50
2024-02-29T09:28:31.811Z,101711.31
2024-02-29T09:30:59.710Z,101714.16
2024-02-29T09:33:30.518Z,101713.91
2024-02-29T09:35:59.159Z,101713.14
2024-02-29T09:38:28.557Z,101707.93
2024-02-29T09:41:06.741Z,101701.33
2024-02-29T09:43:45.809Z,101699.43
2024-02-29T09:46:13.795Z,101692.82
2024-02-29T09:48:41.790Z,101687.70
2024-02-29T09:51:14.462Z,101690.45
2024-02-29T09:53:43.180Z,101685.88
2024-02-29T09:56:11.148Z,101681.46
2024-02-29T09:58:39.004Z,101680.03
2024-02-29T10:01:07.027Z,101673.80
2024-02-29T10:03:34.961Z,101671.89
2024-02-29T10:06:04.701Z,101664.55
2024-02-29T10:08:34.846Z,101658.77
2024-02-29T10:11:03.954Z,101655.39
2024-02-29T10:13:39.889Z,101655.44
2024-02-29T10:16:09.568Z,101651.69
2024-02-29T10:18:38.551Z,101648.89
2024-02-29T10:21:11.449Z,101644.29
2024-02-29T10:23:46.109Z,101638.52
2024-02-29T10:26:16.678Z,101640.14
2024-02-29T10:28:44.982Z,101635.22
2024-02-29T10:31:16.177Z,101632.27
2024-02-29T10:33:48.293Z,101621.96
2024-02-29T10:36:17.772Z,101622.95
2024-02-29T10:38:45.642Z,101622.39
2024-02-29T10:41:13.558Z,101621.70
2024-02-29T10:43:45.115Z,101618.55
2024-02-29T10:46:13.081Z,101612.95
2024-02-29T10:48:44.244Z,101612.21
2024-02-29T10:51:21.124Z,101603.63
2024-02-29T10:53:58.897Z,101600.71
2024-02-29T10:56:28.738Z,101597.18
2024-02-29T10:59:09.143Z,101595.89
2024-02-29T11:01:40.320Z,101594.98
2024-02-29T11:04:08.550Z,101594.95
2024-02-29T11:06:49.147Z,101592.37
2024-02-29T11:09:18.413Z,101593.09
2024-02-29T11:11:48.595Z,101588.52
2024-02-29T11:14:19.003Z,101578.73
2024-02-29T11:16:49.874Z,101575.27
2024-02-29T11:19:20.396Z,101571.02
2024-02-29T11:21:50.309Z,101563.20
2024-02-29T11:24:21.327Z,101559.25
2024-02-29T11:26:58.224Z,101561.63
2024-02-29T11:29:26.103Z,101563.54
2024-02-29T11:31:58.085Z,101558.38
2024-02-29T11:34:26.143Z,101551.23
2024-02-29T11:36:54.388Z,101544.26
2024-02-29T11:39:23.015Z,101534.13
2024-02-29T11:41:51.732Z,101533.30
2024-02-29T11:44:19.549Z,101536.27
2024-02-29T11:46:47.931Z,101533.70
2024-02-29T11:49:16.348Z,101534.08
2024-02-29T11:51:45.187Z,101535.10
2024-02-29T11:54:16.865Z,101529.00
2024-02-29T11:56:44.867Z,101523.86
2024-02-29T11:59:17.409Z,101516.40
2024-02-29T12:01:45.642Z,101513.15
2024-02-29T12:04:13.924Z,101507.97
2024-02-29T12:06:42.001Z,101503.38
2024-02-29T12:09:13.849Z,101496.13
2024-02-29T12:15:08.271Z,101489.64
2024-02-29T12:17:36.075Z,101485.92
2024-02-29T12:20:05.786Z,101487.98
2024-02-29T12:22:33.942Z,101481.93
2024-02-29T12:25:13.115Z,101479.33
2024-02-29T12:27:45.596Z,101478.39
2024-02-29T12:30:13.805Z,101476.80
2024-02-29T12:32:47.851Z,101470.64
2024-02-29T12:35:15.879Z,101464.88
2024-02-29T12:37:44.516Z,101465.02
2024-02-29T12:40:16.030Z,101457.66
2024-02-29T12:42:44.145Z,101457.64
2024-02-29T12:45:16.910Z,101452.71
2024-02-29T12:47:49.141Z,101453.77
2024-02-29T12:50:16.949Z,101450.52
2024-02-29T12:52:47.722Z,101445.40
2024-02-29T12:55:15.455Z,101442.85
2024-02-29T12:57:43.303Z,101439.02
2024-02-29T13:00:22.016Z,101431.77
2024-02-29T13:02:51.047Z,101426.86
2024-02-29T13:05:19.089Z,101424.60
2024-02-29T13:07:49.484Z,101422.75
2024-02-29T13:10:23.555Z,101418.81
2024-02-29T13:12:57.467Z,101412.34
2024-02-29T13:15:32.362Z,101409.05
2024-02-29T13:18:00.288Z,101403.28
2024-02-29T13:20:30.372Z,101409.05
2024-02-29T13:22:59.367Z,101402.91
2024-02-29T13:25:30.306Z,101402.48
2024-02-29T13:27:58.406Z,101388.64
2024-02-29T13:30:26.506Z,101397.39
2024-02-29T13:32:56.885Z,101395.10
2024-02-29T13:35:24.796Z,101392.73
2024-02-29T13:37:53.366Z,101389.12
2024-02-29T13:40:21.466Z,101388.40
2024-02-29T13:42:49.770Z,101387.08
2024-02-29T13:45:17.721Z,101381.23
2024-02-29T13:47:51.239Z,101379.20
2024-02-29T13:50:20.654Z,101378.40
2024-02-29T13:52:48.752Z,101377.26
2024-02-29T13:55:16.916Z,101370.60
2024-02-29T13:57:45.003Z,101365.77
2024-02-29T14:00:13.227Z,101366.18
2024-02-29T14:02:41.108Z,101364.10
2024-02-29T14:05:09.012Z,101356.30
2024-02-29T14:07:37.299Z,101359.34
2024-02-29T14:10:05.961Z,101355.52
2024-02-29T14:12:36.433Z,101347.79
2024-02-29T14:15:05.729Z,101342.84
2024-02-29T14:17:33.608Z,101335.25
2024-02-29T14:20:01.372Z,101332.52
2024-02-29T14:22:29.374Z,101336.41
2024-02-29T14:24:57.404Z,101326.82
2024-02-29T14:27:25.277Z,101326.67
2024-02-29T14:29:53.447Z,101324.92
2024-02-29T14:32:21.608Z,101325.45
2024-02-29T14:34:49.920Z,101319.31
2024-02-29T14:37:17.710Z,101315.42
2024-02-29T14:39:47.139Z,101313.50
2024-02-29T14:42:15.430Z,101311.85
2024-02-29T14:44:43.671Z,101301.23
2024-02-29T14:47:11.949Z,101309.48
2024-02-29T14:49:41.334Z,101300.52
2024-02-29T14:52:10.849Z,101309.20
2024-02-29T14:54:38.709Z,101308.89
2024-02-29T14:57:06.678Z,101309.83
2024-02-29T14:59:34.472Z,101308.73
2024-02-29T15:02:02.423Z,101306.55
2024-02-29T15:04:30.453Z,101305.92
2024-02-29T15:06:59.534Z,101303.38
2024-02-29T15:09:27.421Z,101293.91
2024-02-29T15:12:16.239Z,101293.89
2024-02-29T15:14:44.521Z,101293.42
2024-02-29T15:17:12.285Z,101285.04
2024-02-29T15:19:42.090Z,101281.48
2024-02-29T15:22:09.960Z,101281.00
2024-02-29T15:24:37.913Z,101278.87
2024-02-29T15:27:10.361Z,101280.43
2024-02-29T15:29:38.149Z,101281.39
2024-02-29T15:32:06.681Z,101281.77
2024-02-29T15:34:34.567Z,101277.77
2024-02-29T15:37:02.840Z,101273.50
2024-02-29T15:39:30.607Z,101271.50
2024-02-29T15:41:58.489Z,101272.61
2024-02-29T15:44:26.568Z,101272.52
2024-02-29T15:46:55.684Z,101265.77
2024-02-29T15:49:24.234Z,101268.27
2024-02-29T15:51:52.101Z,101275.10
2024-02-29T15:54:19.863Z,101274.29
2024-02-29T15:56:47.728Z,101272.34
2024-02-29T15:59:16.843Z,101267.92
2024-02-29T16:01:45.101Z,101270.58
2024-02-29T16:04:12.998Z,101270.14
2024-02-29T16:06:40.807Z,101273.48
2024-02-29T16:09:08.722Z,101279.34
2024-02-29T16:11:36.603Z,101276.98
2024-02-29T16:14:04.475Z,101283.33
2024-02-29T16:16:32.345Z,101282.90
2024-02-29T16:19:00.162Z,101287.36
2024-02-29T16:21:27.978Z,101288.50
2024-02-29T16:23:56.525Z,101286.20
2024-02-29T16:26:24.605Z,101287.55
2024-02-29T16:28:55.151Z,101283.48
2024-02-29T16:31:23.320Z,101278.30
2024-02-29T16:33:51.357Z,101285.45
2024-02-29T16:36:20.119Z,101287.67
2024-02-29T16:38:47.884Z,101298.01
2024-02-29T16:41:15.678Z,101289.77
2024-02-29T16:43:45.939Z,101295.39
2024-02-29T16:46:14.159Z,101293.95
2024-02-29T16:48:42.046Z,101286.80
2024-02-29T16:51:10.188Z,101295.69
2024-02-29T16:53:37.963Z,101297.30
2024-02-29T16:56:05.756Z,101296.56
2024-02-29T16:58:33.609Z,101296.29
2024-02-29T17:01:01.766Z,101295.81
2024-02-29T17:03:29.603Z,101294.08
2024-02-29T17:05:57.417Z,101294.89
2024-02-29T17:08:26.235Z,101291.15
2024-02-29T17:10:54.045Z,101293.34
2024-02-29T17:13:22.153Z,101284.60
2024-02-29T17:15:50.069Z,101295.13
2024-02-29T17:18:19.172Z,101291.58
2024-02-29T17:20:49.493Z,101292.55
2024-02-29T17:23:17.342Z,101291.22
2024-02-29T17:25:45.096Z,101289.73
2024-02-29T17:28:12.865Z,101287.13
2024-02-29T17:30:40.969Z,101286.27
2024-02-29T17:33:09.176Z,101283.45
2024-02-29T17:35:38.481Z,101281.67
2024-02-29T17:38:08.184Z,101281.27
2024-02-29T17:40:36.561Z,101277.56
2024-02-29T17:43:04.602Z,101277.21
2024-02-29T17:45:33.579Z,101273.34
2024-02-29T17:48:01.417Z,101277.02
2024-02-29T17:50:31.446Z,101272.13
2024-02-29T17:52:59.976Z,101272.66
2024-02-29T17:55:28.787Z,101271.25
2024-02-29T17:57:59.144Z,101268.44
2024-02-29T18:00:27.970Z,101269.77
2024-02-29T18:02:59.231Z,101261.52
2024-02-29T18:05:27.177Z,101265.45
2024-02-29T18:07:59.283Z,101264.48
2024-02-29T18:10:30.608Z,101257.63
2024-02-29T18:12:58.716Z,101257.35
2024-02-29T18:15:26.714Z,101258.24
2024-02-29T18:17:55.291Z,101256.88
2024-02-29T18:20:23.106Z,101252.17
2024-02-29T18:22:50.895Z,101243.19
2024-02-29T18:25:22.018Z,101246.36
2024-02-29T18:27:50.058Z,101242.11
2024-02-29T18:30:18.073Z,101234.39
2024-02-29T18:32:45.842Z,101235.18
2024-02-29T18:35:17.755Z,101228.54
2024-02-29T18:37:45.531Z,101223.15
2024-02-29T18:40:14.013Z,101222.73
2024-02-29T18:42:44.931Z,101212.60
2024-02-29T18:45:15.696Z,101223.89
2024-02-29T18:47:45.861Z,101221.15
2024-02-29T18:50:16.012Z,101218.71
2024-02-29T18:52:43.857Z,101214.00
2024-02-29T18:55:12.741Z,101214.04
2024-02-29T18:57:41.703Z,101217.72
2024-02-29T19:00:09.814Z,101203.16
2024-02-29T19:02:38.904Z,101208.17
2024-02-29T19:05:07.174Z,101205.41
2024-02-29T19:07:35.901Z,101206.66
2024-02-29T19:10:05.146Z,101198.37
2024-02-29T19:12:33.635Z,101198.76
2024-02-29T19:15:01.653Z,101198.80
2024-02-29T19:17:31.767Z,101194.34
2024-02-29T19:19:59.989Z,101195.13
2024-02-29T19:22:28.918Z,101188.89
2024-02-29T19:24:58.465Z,101183.20
2024-02-29T19:27:26.507Z,101187.71
2024-02-29T19:29:54.269Z,101177.44
2024-02-29T19:32:22.329Z,101179.38
2024-02-29T19:34:50.159Z,101167.80
2024-02-29T19:37:18.165Z,101176.19
2024-02-29T19:39:47.933Z,101168.24
2024-02-29T19:42:16.919Z,101173.59
2024-02-29T19:44:44.885Z,101167.86
2024-02-29T19:47:12.816Z,101166.13
2024-02-29T19:49:40.661Z,101161.60
2024-02-29T19:52:08.746Z,101160.73
2024-02-29T19:54:37.852Z,101157.23
2024-02-29T19:57:05.673Z,101160.90
2024-02-29T19:59:34.685Z,101156.31
2024-02-29T20:02:02.531Z,101157.67
2024-02-29T20:04:33.687Z,101153.45
2024-02-29T20:07:02.370Z,101148.98
2024-02-29T20:09:30.206Z,101145.60
2024-02-29T20:11:58.136Z,101147.27
2024-02-29T20:14:25.953Z,101139.98
2024-02-29T20:16:53.757Z,101132.91
2024-02-29T20:19:21.537Z,101134.17
2024-02-29T20:21:49.450Z,101123.89
2024-02-29T20:24:17.559Z,101121.85
2024-02-29T20:26:45.634Z,101116.33
2024-02-29T20:29:13.444Z,101106.95
2024-02-29T20:31:43.879Z,101105.81
2024-02-29T20:34:11.704Z,101103.92
2024-02-29T20:36:43.898Z,101102.94
2024-02-29T20:39:13.797Z,101100.04
2024-02-29T20:41:41.684Z,101104.32
2024-02-29T20:44:12.095Z,101099.30
2024-02-29T20:46:39.901Z,101099.39
2024-02-29T20:49:08.652Z,101094.52
2024-02-29T20:51:36.487Z,101093.35
2024-02-29T20:54:07.482Z,101089.23
2024-02-29T20:56:35.306Z,101085.23
2024-02-29T20:59:05.212Z,101074.14
2024-02-29T21:01:34.734Z,101081.00
2024-02-29T21:04:02.572Z,101078.27
2024-02-29T21:06:32.165Z,101071.66
2024-02-29T21:08:59.930Z,101072.96
2024-02-29T21:11:27.778Z,101074.31
2024-02-29T21:13:55.651Z,101073.52
2024-02-29T21:16:24.037Z,101071.84
2024-02-29T21:18:51.877Z,101063.27
2024-02-29T21:21:19.942Z,101057.53
2024-02-29T21:23:48.063Z,101050.02
2024-02-29T21:26:17.340Z,101043.16
2024-02-29T21:28:47.718Z,101032.45
2024-02-29T21:31:16.170Z,101032.70
2024-02-29T21:33:45.096Z,101025.60
2024-02-29T21:36:12.891Z,101027.24
2024-02-29T21:38:44.647Z,101023.17
2024-02-29T21:41:12.514Z,101026.27
2024-02-29T21:43:41.247Z,101013.74
2024-02-29T21:46:11.814Z,101016.07
2024-02-29T21:48:39.630Z,101016.20
2024-02-29T21:51:07.477Z,101013.55
2024-02-29T21:53:35.729Z,101012.48
2024-02-29T21:56:05.851Z,101005.61
2024-02-29T21:58:33.855Z,101007.63
2024-02-29T22:01:02.719Z,101005.45
2024-02-29T22:03:30.547Z,101002.35
2024-02-29T22:05:58.482Z,101001.66
2024-02-29T22:08:26.242Z,100998.89
2024-02-29T22:10:54.106Z,101002.08
2024-02-29T22:15:43.066Z,101001.50
2024-02-29T22:18:11.120Z,101000.05
2024-02-29T22:20:38.968Z,101000.27
2024-02-29T22:23:08.237Z,101003.23
2024-02-29T22:25:36.051Z,100994.30
2024-02-29T22:28:04.197Z,100991.48
2024-02-29T22:30:32.012Z,100986.20
2024-02-29T22:33:02.120Z,100985.45
2024-02-29T22:35:30.012Z,100984.91
2024-02-29T22:37:57.814Z,100979.10
2024-02-29T22:40:26.038Z,100980.98
2024-02-29T22:42:53.983Z,100972.70
2024-02-29T22:45:21.822Z,100967.23
2024-02-29T22:47:49.700Z,100963.84
2024-02-29T22:50:17.657Z,100959.65
2024-02-29T22:52:45.569Z,100956.80
2024-02-29T22:55:13.515Z,100952.02
2024-02-29T22:57:42.261Z,100951.45
2024-02-29T23:00:21.942Z,100944.21
2024-02-29T23:02:49.956Z,100943.08
2024-02-29T23:05:17.822Z,100936.55
2024-02-29T23:07:47.358Z,100937.81
2024-02-29T23:10:16.582Z,100925.45
2024-02-29T23:12:45.631Z,100926.55
2024-02-29T23:15:13.497Z,100922.42
2024-02-29T23:17:41.503Z,100918.85
2024-02-29T23:20:13.537Z,100920.70
2024-02-29T23:22:46.315Z,100916.64
2024-02-29T23:25:15.631Z,100915.45
2024-02-29T23:27:43.601Z,100921.21
2024-02-29T23:30:12.585Z,100917.64
2024-02-29T23:32:41.142Z,100916.83
2024-02-29T23:35:09.660Z,100914.18
2024-02-29T23:37:37.656Z,100916.89
2024-02-29T23:40:06.290Z,100909.73
2024-02-29T23:42:34.181Z,100911.79
2024-02-29T23:45:02.096Z,100905.71
2024-02-29T23:47:29.944Z,100906.52
2024-02-29T23:49:59.547Z,100894.55
2024-02-29T23:52:27.559Z,100897.63
2024-02-29T23:54:59.849Z,100896.13
2024-02-29T23:57:30.229Z,100891.18
2024-02-29T23:59:58.022Z,100893.50
